Terminal Aerodrome Forecast
Issued by NWS

Home | Current Version | Previous Version | Graphics & Text | Print | Product List | Glossary On
Versions: 1 2 3 4 5 6 7 8 9 10 11 12 13 14 15 16 17 18
000
FTUS43 KLSX 161200 AAA
TAFSUS
TAF AMD
KSUS 161259Z 1613/1712 00000KT P6SM FEW150
     FM161400 00000KT P6SM FEW005 BKN020
     FM161700 VRB03KT P6SM BKN035
     FM170100 00000KT P6SM FEW050=

USA.gov is the U.S. government's official web portal to all federal, state and local government web resources and services.